Insula Oya 2 — FUKI — position and weather

sailwx.info

Track history (hours):
 
Tides and Currents Weather Stations Pressure Air Temp Water Temp Dewpoint Dewpoint Depression Visibility Wind Speed Wind Dir Waves Ship Positions

Insula Oya 2

Last reported at 2014-Oct-31 08:05 UTC. Time now 2014-Nov-01 07:04 UTC.
Position N 46°44' W 002°21'.

Length 50 m; draft 2.5 m.

Type: Passenger vessel. MMSI: 227004900.

Date/timePositionNaut miles runAvg speedWind from/ knotsBaromVisibWave heightAir tempDewpointWater temp
2014-Oct-31 08:05N 46°44' W 002°21'713.5
2014-Oct-31 07:33N 46°50' W 002°15'6 5.8
2014-Oct-31 06:33N 46°54' W 002°08'0 0.0
2014-Oct-31 03:33N 46°54' W 002°08'0 0.0
2014-Oct-31 02:27N 46°54' W 002°08'0 0.0
2014-Oct-31 01:33N 46°54' W 002°08'0 0.0
2014-Oct-30 23:15N 46°54' W 002°08'0 0.0
2014-Oct-30 22:27N 46°54' W 002°08'0 0.0
2014-Oct-30 21:33N 46°54' W 002°08'0 0.0
2014-Oct-30 20:33N 46°54' W 002°08'4 1.9
2014-Oct-30 18:29N 46°52' W 002°13'9 1.2
2014-Oct-30 10:21N 46°44' W 002°21'1113.6
2014-Oct-30 09:33N 46°53' W 002°12'8 2.6
2014-Oct-30 06:33N 46°46' W 002°18'3 0.3
2014-Oct-29 20:18N 46°44' W 002°21'1013.8
2014-Oct-29 19:33N 46°52' W 002°12'3 3.1
2014-Oct-29 18:33N 46°54' W 002°08'0 0.0
2014-Oct-29 17:33N 46°54' W 002°08'1110.1
2014-Oct-29 16:30N 46°46' W 002°19'1 0.1
2014-Oct-29 07:11N 46°45' W 002°19'913.8
2014-Oct-29 06:32N 46°52' W 002°12'3 2.8
2014-Oct-29 05:32N 46°54' W 002°08'0 0.0
2014-Oct-29 04:22N 46°54' W 002°08'0 0.0
2014-Oct-29 02:07N 46°54' W 002°08'0 0.0
2014-Oct-29 01:04N 46°54' W 002°08'0 0.0
2014-Oct-28 23:22N 46°54' W 002°08'11 0.7
2014-Oct-28 07:16N 46°45' W 002°20'1013.7
2014-Oct-28 06:33N 46°53' W 002°11'5 0.3
2014-Oct-27 15:32N 46°49' W 002°16'6 0.8
2014-Oct-27 07:06N 46°44' W 002°21'0 0.0
2014-Oct-27 06:29N 46°44' W 002°21'  
2014-Oct-23 05:10N 46°49' W 002°16'3 0.1
2014-Oct-22 04:33N 46°47' W 002°18'  
Track history (hours):
 
Tides and Currents Weather Stations Pressure Air Temp Water Temp Dewpoint Dewpoint Depression Visibility Wind Speed Wind Dir Waves Ship Positions

Insula Oya 2

Last reported at 2014-Oct-31 08:05 UTC. Time now 2014-Nov-01 07:04 UTC.
Position N 46°44' W 002°21'.

Length 50 m; draft 2.5 m.

Type: Passenger vessel. MMSI: 227004900.

Date/timePositionNaut miles runAvg speedWind from/ knotsBaromVisibWave heightAir tempDewpointWater temp
2014-Oct-31 08:05N 46°44' W 002°21'713.5
2014-Oct-31 07:33N 46°50' W 002°15'6 5.8
2014-Oct-31 06:33N 46°54' W 002°08'0 0.0
2014-Oct-31 03:33N 46°54' W 002°08'0 0.0
2014-Oct-31 02:27N 46°54' W 002°08'0 0.0
2014-Oct-31 01:33N 46°54' W 002°08'0 0.0
2014-Oct-30 23:15N 46°54' W 002°08'0 0.0
2014-Oct-30 22:27N 46°54' W 002°08'0 0.0
2014-Oct-30 21:33N 46°54' W 002°08'0 0.0
2014-Oct-30 20:33N 46°54' W 002°08'4 1.9
2014-Oct-30 18:29N 46°52' W 002°13'9 1.2
2014-Oct-30 10:21N 46°44' W 002°21'1113.6
2014-Oct-30 09:33N 46°53' W 002°12'8 2.6
2014-Oct-30 06:33N 46°46' W 002°18'3 0.3
2014-Oct-29 20:18N 46°44' W 002°21'1013.8
2014-Oct-29 19:33N 46°52' W 002°12'3 3.1
2014-Oct-29 18:33N 46°54' W 002°08'0 0.0
2014-Oct-29 17:33N 46°54' W 002°08'1110.1
2014-Oct-29 16:30N 46°46' W 002°19'1 0.1
2014-Oct-29 07:11N 46°45' W 002°19'913.8
2014-Oct-29 06:32N 46°52' W 002°12'3 2.8
2014-Oct-29 05:32N 46°54' W 002°08'0 0.0
2014-Oct-29 04:22N 46°54' W 002°08'0 0.0
2014-Oct-29 02:07N 46°54' W 002°08'0 0.0
2014-Oct-29 01:04N 46°54' W 002°08'0 0.0
2014-Oct-28 23:22N 46°54' W 002°08'11 0.7
2014-Oct-28 07:16N 46°45' W 002°20'1013.7
2014-Oct-28 06:33N 46°53' W 002°11'5 0.3
2014-Oct-27 15:32N 46°49' W 002°16'6 0.8
2014-Oct-27 07:06N 46°44' W 002°21'0 0.0
2014-Oct-27 06:29N 46°44' W 002°21'  
2014-Oct-23 05:10N 46°49' W 002°16'3 0.1
2014-Oct-22 04:33N 46°47' W 002°18'  

Dump ship's entire track history